Time;durP1;ratioP1;P1;durP2;ratioP2;P2;SDS_P1;SDS_P2;PMS_P1;PMS_P2;Temp;Humidity;BMP_temperature;BMP_pressure;BME280_temperature;BME280_humidity;BME280_pressure;Samples;Min_cycle;Max_cycle;Signal;HPM_P1;HPM_P2
2022/05/23 00:04:30;;;;;;;;;;;15.80;99.90;;;;;;10458351;28;84021;-49
2022/05/23 00:09:31;;;;;;;;;;;15.80;99.90;;;;;;10456770;27;84280;-50
2022/05/23 00:14:31;;;;;;;;;;;15.80;99.90;;;;;;10456815;28;84925;-55
2022/05/23 00:19:32;;;;;;;;;;;15.60;99.90;;;;;;10456366;27;85003;-51
2022/05/23 00:24:32;;;;;;;;;;;15.70;99.90;;;;;;10455515;28;85050;-53
2022/05/23 00:29:33;;;;;;;;;;;15.70;99.90;;;;;;10454502;27;85521;-51
2022/05/23 00:39:56;;;;;;;;;;;15.80;99.90;;;;;;10455668;27;84661;-51
2022/05/23 00:44:57;;;;;;;;;;;15.80;99.90;;;;;;10456167;28;84452;-51
2022/05/23 00:49:57;;;;;;;;;;;15.70;99.90;;;;;;10453873;27;85737;-56
2022/05/23 00:54:59;;;;;;;;;;;15.70;99.90;;;;;;10454576;28;86667;-50
2022/05/23 01:00:01;;;;;;;;;;;15.70;99.90;;;;;;10454748;28;85132;-53
2022/05/23 01:05:02;;;;;;;;;;;15.70;99.90;;;;;;10456089;27;84733;-52
2022/05/23 01:10:03;;;;;;;;;;;15.70;99.90;;;;;;10453251;28;85760;-50
2022/05/23 01:15:14;;;;;;;;;;;15.70;1.00;;;;;;10453867;28;85687;-51
2022/05/23 01:20:15;;;;;;;;;;;15.70;1.00;;;;;;10452941;28;87018;-53
2022/05/23 01:25:19;;;;;;;;;;;15.70;1.00;;;;;;10453136;27;86947;-51
2022/05/23 01:30:22;;;;;;;;;;;15.70;1.00;;;;;;10452842;28;85980;-51
2022/05/23 01:35:40;;;;;;;;;;;15.60;1.00;;;;;;10451940;27;85831;-51
2022/05/23 01:40:43;;;;;;;;;;;15.70;1.00;;;;;;10452359;28;86848;-51
2022/05/23 01:45:48;;;;;;;;;;;15.70;1.00;;;;;;10452034;28;85842;-50
2022/05/23 01:50:58;;;;;;;;;;;15.60;1.00;;;;;;10451844;28;86628;-53
2022/05/23 01:56:02;;;;;;;;;;;15.50;1.00;;;;;;10452034;27;85899;-50
2022/05/23 02:01:16;;;;;;;;;;;15.50;1.00;;;;;;10451381;28;86902;-49
2022/05/23 02:06:29;;;;;;;;;;;15.50;1.00;;;;;;10451355;27;86573;-50
2022/05/23 02:11:34;;;;;;;;;;;15.50;1.00;;;;;;10450520;28;86937;-50
2022/05/23 02:16:35;;;;;;;;;;;15.50;1.00;;;;;;10450640;27;86623;-52
2022/05/23 02:21:36;;;;;;;;;;;15.50;1.00;;;;;;10451382;28;86868;-55
2022/05/23 02:26:37;;;;;;;;;;;15.30;1.00;;;;;;10451135;28;87024;-51
2022/05/23 02:31:52;;;;;;;;;;;15.30;1.00;;;;;;10450146;28;85861;-50
2022/05/23 02:36:53;;;;;;;;;;;15.20;1.00;;;;;;10443555;27;86125;-51
2022/05/23 02:42:07;;;;;;;;;;;15.20;1.00;;;;;;10443847;28;84099;-50
2022/05/23 02:47:10;;;;;;;;;;;15.30;1.00;;;;;;10465556;27;86626;-51
2022/05/23 02:52:13;;;;;;;;;;;15.30;1.00;;;;;;10443918;28;85947;-52
2022/05/23 02:57:32;;;;;;;;;;;15.30;1.00;;;;;;10417366;28;85795;-54
2022/05/23 03:07:56;;;;;;;;;;;15.30;1.00;;;;;;10450401;27;85886;-53
2022/05/23 03:12:57;;;;;;;;;;;15.30;1.00;;;;;;10435618;28;85950;-52
2022/05/23 03:17:58;;;;;;;;;;;15.30;1.00;;;;;;10424619;27;85807;-50
2022/05/23 03:28:22;;;;;;;;;;;15.40;1.00;;;;;;10457490;27;86786;-51
2022/05/23 03:33:23;;;;;;;;;;;15.30;1.00;;;;;;10432625;28;86163;-51
2022/05/23 03:38:23;;;;;;;;;;;15.30;1.00;;;;;;10432873;28;84850;-52
2022/05/23 03:43:24;;;;;;;;;;;15.30;1.00;;;;;;10442474;28;85952;-51
2022/05/23 03:48:25;;;;;;;;;;;15.30;1.00;;;;;;10427508;28;87003;-53
2022/05/23 03:53:26;;;;;;;;;;;15.20;1.00;;;;;;10431231;28;85870;-53
2022/05/23 03:58:32;;;;;;;;;;;15.30;1.00;;;;;;10434253;27;85678;-54
2022/05/23 04:03:53;;;;;;;;;;;15.30;1.00;;;;;;10434422;28;86718;-52
2022/05/23 04:08:54;;;;;;;;;;;15.30;1.00;;;;;;10455841;22;86882;-52
2022/05/23 04:13:55;;;;;;;;;;;15.40;1.00;;;;;;10438295;28;85168;-52
2022/05/23 04:18:56;;;;;;;;;;;15.40;1.00;;;;;;10392012;28;85966;-57
2022/05/23 04:23:58;;;;;;;;;;;15.40;1.00;;;;;;10374483;28;85879;-52
2022/05/23 04:28:59;;;;;;;;;;;15.50;1.00;;;;;;10385162;28;86813;-54
2022/05/23 04:39:27;;;;;;;;;;;15.50;1.00;;;;;;10408827;28;86880;-53
2022/05/23 04:44:28;;;;;;;;;;;15.60;1.00;;;;;;10394672;28;85930;-52
2022/05/23 04:55:08;;;;;;;;;;;15.60;1.00;;;;;;10411209;28;85022;-53
2022/05/23 05:00:10;;;;;;;;;;;15.60;1.00;;;;;;10393323;28;85847;-54
2022/05/23 05:05:18;;;;;;;;;;;15.80;1.00;;;;;;10411416;28;85013;-51
2022/05/23 05:10:27;;;;;;;;;;;15.70;1.00;;;;;;10407152;28;84332;-57
2022/05/23 05:15:28;;;;;;;;;;;15.80;1.00;;;;;;10410591;28;84222;-54
2022/05/23 05:20:29;;;;;;;;;;;15.90;1.00;;;;;;10391457;28;86045;-53
2022/05/23 05:25:33;;;;;;;;;;;15.90;1.00;;;;;;10411465;28;84751;-51
2022/05/23 05:30:49;;;;;;;;;;;16.10;1.00;;;;;;10390279;28;85823;-51
2022/05/23 05:35:58;;;;;;;;;;;16.30;1.00;;;;;;10406037;28;84201;-57
2022/05/23 05:41:03;;;;;;;;;;;16.30;1.00;;;;;;10387483;28;85801;-52
2022/05/23 05:46:08;;;;;;;;;;;16.20;1.00;;;;;;10389906;28;85760;-53
2022/05/23 05:51:24;;;;;;;;;;;16.30;1.00;;;;;;10383405;28;86878;-53
2022/05/23 05:57:03;;;;;;;;;;;16.40;1.00;;;;;;10313534;28;84663;-52
2022/05/23 06:02:07;;;;;;;;;;;16.60;1.00;;;;;;10361734;28;87069;-58
2022/05/23 06:12:33;;;;;;;;;;;17.00;1.00;;;;;;10385470;28;86984;-55
2022/05/23 06:17:54;;;;;;;;;;;17.10;1.00;;;;;;10390104;28;84772;-54
2022/05/23 06:22:57;;;;;;;;;;;17.30;1.00;;;;;;10383273;28;85852;-57
2022/05/23 06:27:58;;;;;;;;;;;17.50;1.00;;;;;;10389850;28;86635;-54
2022/05/23 06:33:00;;;;;;;;;;;17.80;1.00;;;;;;10386015;28;86893;-51
2022/05/23 06:38:13;;;;;;;;;;;17.90;1.00;;;;;;10386871;28;86878;-54
2022/05/23 06:43:23;;;;;;;;;;;18.00;1.00;;;;;;10406380;28;84249;-51
2022/05/23 06:48:43;;;;;;;;;;;18.00;1.00;;;;;;10403591;28;85467;-59
2022/05/23 06:53:57;;;;;;;;;;;18.10;1.00;;;;;;10389156;28;85881;-56
2022/05/23 06:59:11;;;;;;;;;;;18.40;1.00;;;;;;10388119;28;85257;-55
2022/05/23 07:04:17;;;;;;;;;;;18.40;1.00;;;;;;10389640;28;87056;-54
2022/05/23 07:14:44;;;;;;;;;;;19.10;99.90;;;;;;10384997;28;85686;-55
2022/05/23 07:19:45;;;;;;;;;;;19.50;99.90;;;;;;10406744;28;84310;-55
2022/05/23 07:24:49;;;;;;;;;;;19.90;99.90;;;;;;10389212;28;85785;-53
2022/05/23 07:29:54;;;;;;;;;;;20.30;27.10;;;;;;10387597;28;86023;-53
2022/05/23 07:34:57;;;;;;;;;;;21.00;1.00;;;;;;10392254;28;85759;-55
2022/05/23 07:39:59;;;;;;;;;;;21.70;1.00;;;;;;10393941;28;85908;-56
2022/05/23 07:45:12;;;;;;;;;;;22.00;15.00;;;;;;10396623;28;84927;-56
2022/05/23 07:50:14;;;;;;;;;;;22.20;1.00;;;;;;10395884;28;86709;-57
2022/05/23 08:00:37;;;;;;;;;;;22.70;1.00;;;;;;10410084;28;86890;-52
2022/05/23 08:05:46;;;;;;;;;;;23.00;1.00;;;;;;10392837;28;86789;-51
2022/05/23 08:10:49;;;;;;;;;;;23.10;99.90;;;;;;10394892;28;85673;-51
2022/05/23 08:15:51;;;;;;;;;;;23.30;1.00;;;;;;10393944;28;85896;-56
2022/05/23 08:20:52;;;;;;;;;;;23.20;1.00;;;;;;10394779;28;87089;-49
2022/05/23 08:25:58;;;;;;;;;;;23.50;1.00;;;;;;10394344;28;86119;-53
2022/05/23 08:31:04;;;;;;;;;;;24.00;1.00;;;;;;10388632;28;86928;-56
2022/05/23 08:36:12;;;;;;;;;;;24.50;1.00;;;;;;10393329;28;85698;-52
2022/05/23 08:41:16;;;;;;;;;;;24.50;1.00;;;;;;10392851;28;85295;-55
2022/05/23 08:46:27;;;;;;;;;;;25.20;1.00;;;;;;10389353;28;86005;-57
2022/05/23 08:51:40;;;;;;;;;;;25.30;49.40;;;;;;10393198;28;85794;-51
2022/05/23 08:56:49;;;;;;;;;;;25.80;1.00;;;;;;10391083;28;86801;-60
2022/05/23 09:01:58;;;;;;;;;;;25.30;99.90;;;;;;10392023;28;86676;-57
2022/05/23 09:07:01;;;;;;;;;;;25.30;99.90;;;;;;10392455;28;85804;-55
2022/05/23 09:12:06;;;;;;;;;;;25.40;99.90;;;;;;10411009;28;84278;-54
2022/05/23 09:17:10;;;;;;;;;;;26.40;99.90;;;;;;10410185;28;84245;-57
2022/05/23 09:22:12;;;;;;;;;;;27.90;1.00;;;;;;10408874;28;84192;-55
2022/05/23 09:27:31;;;;;;;;;;;28.10;97.60;;;;;;10409419;28;84229;-56
2022/05/23 09:32:34;;;;;;;;;;;26.40;99.90;;;;;;10409295;28;84101;-55
2022/05/23 09:37:36;;;;;;;;;;;25.40;1.00;;;;;;10392132;28;85823;-58
2022/05/23 09:48:00;;;;;;;;;;;26.30;1.00;;;;;;10411326;28;84941;-54
2022/05/23 09:53:02;;;;;;;;;;;26.70;99.90;;;;;;10409879;28;85723;-58
2022/05/23 09:58:04;;;;;;;;;;;26.20;99.90;;;;;;10409428;28;85771;-55
2022/05/23 10:03:12;;;;;;;;;;;26.40;1.00;;;;;;10410435;28;84847;-53
2022/05/23 10:08:14;;;;;;;;;;;26.20;1.00;;;;;;10440658;22;84283;-57
2022/05/23 10:13:18;;;;;;;;;;;26.00;1.00;;;;;;10492232;27;84832;-54
2022/05/23 10:18:22;;;;;;;;;;;26.60;1.00;;;;;;10472553;27;84949;-55
2022/05/23 10:23:26;;;;;;;;;;;26.50;99.90;;;;;;10449882;28;85230;-56
2022/05/23 10:28:41;;;;;;;;;;;26.50;99.90;;;;;;10451722;28;84387;-53
2022/05/23 10:33:44;;;;;;;;;;;26.60;99.90;;;;;;10449759;28;85046;-56
2022/05/23 10:44:26;;;;;;;;;;;29.30;1.00;;;;;;10449231;28;105037;-57
2022/05/23 10:49:33;;;;;;;;;;;28.00;1.00;;;;;;10441617;28;84844;-52
2022/05/23 10:54:36;;;;;;;;;;;27.30;1.00;;;;;;10448673;28;85534;-54
2022/05/23 11:00:09;;;;;;;;;;;28.10;1.00;;;;;;10448528;28;84563;-54
2022/05/23 11:05:28;;;;;;;;;;;29.00;1.00;;;;;;10426563;28;84342;-53
2022/05/23 11:10:31;;;;;;;;;;;31.10;1.00;;;;;;10447245;28;84297;-57
2022/05/23 11:15:50;;;;;;;;;;;31.30;99.90;;;;;;10449518;28;84797;-55
2022/05/23 11:20:53;;;;;;;;;;;31.40;99.90;;;;;;10448075;28;86046;-52
2022/05/23 11:25:56;;;;;;;;;;;30.50;99.90;;;;;;10446338;28;85054;-55
2022/05/23 11:42:12;;;;;;;;;;;31.60;82.90;;;;;;10358669;28;84824;-55
2022/05/23 11:47:12;;;;;;;;;;;30.50;1.00;;;;;;10448670;27;84720;-50
2022/05/23 11:52:25;;;;;;;;;;;29.70;1.00;;;;;;10445505;28;84925;-52
2022/05/23 11:57:33;;;;;;;;;;;28.90;1.00;;;;;;10448338;27;85079;-52
2022/05/23 12:02:38;;;;;;;;;;;29.90;24.30;;;;;;10444310;28;85788;-53
2022/05/23 12:07:42;;;;;;;;;;;30.70;1.00;;;;;;10447693;28;84060;-53
2022/05/23 12:12:44;;;;;;;;;;;30.80;1.00;;;;;;10448265;28;84631;-53
2022/05/23 12:17:57;;;;;;;;;;;29.90;1.00;;;;;;10447880;28;85090;-57
2022/05/23 12:23:06;;;;;;;;;;;29.30;1.00;;;;;;10451848;27;84768;-53
2022/05/23 12:28:25;;;;;;;;;;;29.30;1.00;;;;;;10454820;28;84827;-54
2022/05/23 12:33:27;;;;;;;;;;;30.40;1.00;;;;;;10454039;28;84031;-52
2022/05/23 12:38:57;;;;;;;;;;;31.30;1.00;;;;;;10453671;27;86658;-52
2022/05/23 12:44:08;;;;;;;;;;;31.70;1.00;;;;;;10445926;28;84910;-53
2022/05/23 12:49:09;;;;;;;;;;;31.30;1.00;;;;;;10454221;27;84111;-56
2022/05/23 12:54:16;;;;;;;;;;;30.90;1.00;;;;;;10454444;28;84175;-52
2022/05/23 12:59:35;;;;;;;;;;;31.30;1.00;;;;;;10452269;27;85295;-54
2022/05/23 13:04:49;;;;;;;;;;;31.10;1.00;;;;;;10453375;28;84266;-53
2022/05/23 13:09:52;;;;;;;;;;;30.50;1.00;;;;;;10453519;28;84921;-54
2022/05/23 13:14:55;;;;;;;;;;;29.70;1.00;;;;;;10452931;28;85378;-56
2022/05/23 13:25:15;;;;;;;;;;;29.20;1.00;;;;;;10444342;28;85955;-57
2022/05/23 13:30:15;;;;;;;;;;;29.80;1.00;;;;;;10454685;27;84870;-54
2022/05/23 13:35:16;;;;;;;;;;;30.40;1.00;;;;;;10453655;28;84861;-50
2022/05/23 13:40:18;;;;;;;;;;;31.00;1.00;;;;;;10453468;28;84901;-51
2022/05/23 13:45:24;;;;;;;;;;;30.70;1.00;;;;;;10452721;28;87088;-52
2022/05/23 13:50:33;;;;;;;;;;;30.10;1.00;;;;;;10454500;27;85211;-53
2022/05/23 13:55:40;;;;;;;;;;;30.40;1.00;;;;;;10451963;28;85240;-50
2022/05/23 14:00:43;;;;;;;;;;;30.00;1.00;;;;;;10451229;28;84210;-56
2022/05/23 14:05:49;;;;;;;;;;;29.60;1.00;;;;;;10459905;28;84920;-52
2022/05/23 14:10:49;;;;;;;;;;;29.10;1.00;;;;;;10454564;28;85401;-52
2022/05/23 14:15:52;;;;;;;;;;;28.80;1.00;;;;;;10454494;27;84821;-56
2022/05/23 14:20:53;;;;;;;;;;;28.40;1.00;;;;;;10451383;28;84167;-54
2022/05/23 14:25:54;;;;;;;;;;;28.10;1.00;;;;;;10436569;27;84943;-61
2022/05/23 14:30:59;;;;;;;;;;;27.50;1.00;;;;;;10447462;28;85926;-55
2022/05/23 14:36:01;;;;;;;;;;;26.80;71.80;;;;;;10445032;27;84141;-53
2022/05/23 14:41:20;;;;;;;;;;;26.60;99.90;;;;;;10447575;28;84461;-53
2022/05/23 14:46:22;;;;;;;;;;;26.50;99.90;;;;;;10432386;27;85760;-56
2022/05/23 14:51:30;;;;;;;;;;;26.40;1.00;;;;;;10440406;28;85658;-50
2022/05/23 14:56:36;;;;;;;;;;;26.40;1.00;;;;;;10441583;27;85248;-55
2022/05/23 15:01:37;;;;;;;;;;;26.30;1.00;;;;;;10448935;28;86241;-52
2022/05/23 15:06:37;;;;;;;;;;;26.30;99.90;;;;;;10444792;28;85103;-52
2022/05/23 15:11:39;;;;;;;;;;;26.30;99.90;;;;;;10442605;28;84906;-53
2022/05/23 15:16:41;;;;;;;;;;;26.10;1.00;;;;;;10451965;27;84741;-61
2022/05/23 15:21:41;;;;;;;;;;;25.90;1.00;;;;;;10427481;28;84485;-51
2022/05/23 15:26:43;;;;;;;;;;;25.70;99.90;;;;;;10438356;28;85097;-51
2022/05/23 15:31:48;;;;;;;;;;;25.60;1.00;;;;;;10429872;28;84960;-51
2022/05/23 15:36:48;;;;;;;;;;;25.60;1.00;;;;;;10440843;28;84344;-55
2022/05/23 15:41:55;;;;;;;;;;;25.60;1.00;;;;;;10455076;28;84624;-57
2022/05/23 15:46:57;;;;;;;;;;;25.40;1.00;;;;;;10457939;27;84301;-57
2022/05/23 15:52:01;;;;;;;;;;;25.20;1.00;;;;;;10428459;28;84212;-51
2022/05/23 15:57:02;;;;;;;;;;;24.70;1.00;;;;;;10441599;27;84548;-56
2022/05/23 16:02:09;;;;;;;;;;;24.40;1.00;;;;;;10437743;28;84469;-49
2022/05/23 16:07:09;;;;;;;;;;;24.20;1.00;;;;;;10442320;27;84331;-55
2022/05/23 16:12:11;;;;;;;;;;;24.10;1.00;;;;;;10440284;28;84730;-49
2022/05/23 16:17:11;;;;;;;;;;;24.00;1.00;;;;;;10430579;28;84966;-53
2022/05/23 16:22:15;;;;;;;;;;;23.80;99.90;;;;;;10442318;28;84683;-57
2022/05/23 16:27:16;;;;;;;;;;;23.60;99.90;;;;;;10440417;27;84990;-54
2022/05/23 16:37:37;;;;;;;;;;;23.50;99.90;;;;;;10437784;27;86598;-56
2022/05/23 16:42:38;;;;;;;;;;;23.50;99.90;;;;;;10437461;28;84418;-61
2022/05/23 16:47:38;;;;;;;;;;;23.40;99.90;;;;;;10438956;28;85400;-60
2022/05/23 16:52:39;;;;;;;;;;;23.30;99.90;;;;;;10436384;28;84973;-58
2022/05/23 16:57:40;;;;;;;;;;;23.30;99.90;;;;;;10433452;27;84540;-59
2022/05/23 17:02:41;;;;;;;;;;;23.40;99.90;;;;;;10443605;27;85753;-57
2022/05/23 17:07:41;;;;;;;;;;;23.00;1.00;;;;;;10482885;22;85177;-62
2022/05/23 17:12:42;;;;;;;;;;;22.60;1.00;;;;;;10488958;27;84828;-59
2022/05/23 17:17:42;;;;;;;;;;;22.10;1.00;;;;;;10462979;27;84411;-57
2022/05/23 17:22:43;;;;;;;;;;;21.50;99.90;;;;;;10432886;28;84240;-56
2022/05/23 17:27:45;;;;;;;;;;;20.90;99.90;;;;;;10439253;27;84881;-57
2022/05/23 17:32:46;;;;;;;;;;;20.50;99.90;;;;;;10451423;28;85307;-56
2022/05/23 17:37:47;;;;;;;;;;;20.10;99.90;;;;;;10452371;27;84179;-60
2022/05/23 17:42:48;;;;;;;;;;;19.70;99.90;;;;;;10433626;28;84245;-61
2022/05/23 17:47:49;;;;;;;;;;;19.50;99.90;;;;;;10427783;28;84568;-57
2022/05/23 17:52:50;;;;;;;;;;;19.40;99.90;;;;;;10452367;28;84262;-58
2022/05/23 17:57:51;;;;;;;;;;;19.30;99.90;;;;;;10452554;28;85106;-54
2022/05/23 18:02:52;;;;;;;;;;;19.30;99.90;;;;;;10444345;28;85294;-61
2022/05/23 18:07:54;;;;;;;;;;;19.40;99.90;;;;;;10443440;27;84239;-56
2022/05/23 18:12:54;;;;;;;;;;;19.50;99.90;;;;;;10450573;28;84327;-57
2022/05/23 18:23:15;;;;;;;;;;;19.70;99.90;;;;;;10442342;28;84176;-56
2022/05/23 18:28:16;;;;;;;;;;;19.60;99.90;;;;;;10452506;28;84986;-57
2022/05/23 18:33:19;;;;;;;;;;;19.50;99.90;;;;;;10456191;28;85005;-55
2022/05/23 18:38:19;;;;;;;;;;;19.40;99.90;;;;;;10434124;28;86237;-58
2022/05/23 18:43:20;;;;;;;;;;;19.30;99.90;;;;;;10446932;28;84382;-52
2022/05/23 18:53:40;;;;;;;;;;;19.20;99.90;;;;;;10444156;28;85048;-53
2022/05/23 18:58:42;;;;;;;;;;;19.10;99.90;;;;;;10440274;28;84228;-52
2022/05/23 19:03:47;;;;;;;;;;;19.00;99.90;;;;;;10420460;28;86023;-57
2022/05/23 19:08:48;;;;;;;;;;;18.90;99.90;;;;;;10440594;27;84949;-52
2022/05/23 19:13:53;;;;;;;;;;;18.90;99.90;;;;;;10444096;28;84857;-50
2022/05/23 19:18:54;;;;;;;;;;;18.90;99.90;;;;;;10439425;27;85339;-55
2022/05/23 19:23:55;;;;;;;;;;;18.80;99.90;;;;;;10444556;28;84898;-51
2022/05/23 19:28:57;;;;;;;;;;;18.70;99.90;;;;;;10448420;27;84358;-51
2022/05/23 19:33:57;;;;;;;;;;;18.70;99.90;;;;;;10456370;28;85085;-53
2022/05/23 19:38:58;;;;;;;;;;;18.70;99.90;;;;;;10455717;27;84157;-56
2022/05/23 19:43:59;;;;;;;;;;;18.70;99.90;;;;;;10428468;28;84878;-55
2022/05/23 19:49:00;;;;;;;;;;;18.70;99.90;;;;;;10424619;28;85550;-53
2022/05/23 19:54:00;;;;;;;;;;;18.70;99.90;;;;;;10447114;28;85109;-60
2022/05/23 19:59:06;;;;;;;;;;;18.70;99.90;;;;;;10451531;27;85106;-52
2022/05/23 20:09:25;;;;;;;;;;;18.70;99.90;;;;;;10432498;28;85858;-57
2022/05/23 20:15:21;;;;;;;;;;;18.70;99.90;;;;;;10436057;28;86047;-52
2022/05/23 20:19:47;;;;;;;;;;;18.60;99.90;;;;;;10450246;27;84778;-53
2022/05/23 20:24:47;;;;;;;;;;;18.60;99.90;;;;;;10453507;28;85059;-53
2022/05/23 20:29:48;;;;;;;;;;;18.50;99.90;;;;;;10455123;27;84975;-51
2022/05/23 20:34:48;;;;;;;;;;;18.50;99.90;;;;;;10434284;28;85656;-53
2022/05/23 20:39:50;;;;;;;;;;;18.50;99.90;;;;;;10417171;28;85306;-53
2022/05/23 20:44:55;;;;;;;;;;;18.50;99.90;;;;;;10435779;28;84975;-49
2022/05/23 20:49:55;;;;;;;;;;;18.50;99.90;;;;;;10445198;27;84903;-52
2022/05/23 20:54:56;;;;;;;;;;;18.40;99.90;;;;;;10450914;28;86323;-53
2022/05/23 20:59:58;;;;;;;;;;;18.40;99.90;;;;;;10452333;27;84223;-52
2022/05/23 21:04:58;;;;;;;;;;;18.50;99.90;;;;;;10454110;28;84228;-48
2022/05/23 21:09:59;;;;;;;;;;;18.50;99.90;;;;;;10448289;27;84188;-54
2022/05/23 21:15:00;;;;;;;;;;;18.40;99.90;;;;;;10450036;28;84981;-55
2022/05/23 21:20:00;;;;;;;;;;;18.30;99.90;;;;;;10446575;27;85223;-50
2022/05/23 21:25:01;;;;;;;;;;;18.30;99.90;;;;;;10433261;28;85927;-55
2022/05/23 21:30:02;;;;;;;;;;;18.20;99.90;;;;;;10451553;28;84763;-54
2022/05/23 21:35:04;;;;;;;;;;;18.10;99.90;;;;;;10433224;28;84757;-56
2022/05/23 21:50:44;;;;;;;;;;;16.70;99.90;;;;;;10431564;28;86823;-55
2022/05/23 21:55:46;;;;;;;;;;;16.40;99.90;;;;;;10452220;27;84078;-58
2022/05/23 22:06:09;;;;;;;;;;;16.20;99.90;;;;;;10431719;27;86097;-57
2022/05/23 22:11:10;;;;;;;;;;;16.00;99.90;;;;;;10453404;28;84277;-59
2022/05/23 22:16:11;;;;;;;;;;;16.00;99.90;;;;;;10453115;28;84068;-58
2022/05/23 22:21:12;;;;;;;;;;;16.00;99.90;;;;;;10434730;28;86089;-56
2022/05/23 22:26:13;;;;;;;;;;;16.00;99.90;;;;;;10436692;27;87121;-54
2022/05/23 22:31:15;;;;;;;;;;;15.90;99.90;;;;;;10434019;28;85209;-59
2022/05/23 22:36:15;;;;;;;;;;;15.90;99.90;;;;;;10432672;27;85884;-57
2022/05/23 22:41:16;;;;;;;;;;;15.80;99.90;;;;;;10450553;28;84574;-57
2022/05/23 22:46:17;;;;;;;;;;;15.70;99.90;;;;;;10449969;28;84900;-55
2022/05/23 22:51:18;;;;;;;;;;;15.70;99.90;;;;;;10449924;28;84246;-55
2022/05/23 22:56:19;;;;;;;;;;;15.70;99.90;;;;;;10449440;27;84307;-57
2022/05/23 23:01:20;;;;;;;;;;;15.60;99.90;;;;;;10449815;28;84687;-52
2022/05/23 23:06:20;;;;;;;;;;;15.60;99.90;;;;;;10448827;28;84902;-52
2022/05/23 23:11:21;;;;;;;;;;;15.50;99.90;;;;;;10449845;28;84909;-48
2022/05/23 23:16:23;;;;;;;;;;;15.50;99.90;;;;;;10449178;28;84102;-49
2022/05/23 23:21:24;;;;;;;;;;;15.50;99.90;;;;;;10448893;28;84738;-49
2022/05/23 23:26:24;;;;;;;;;;;15.50;99.90;;;;;;10446521;27;85088;-49
2022/05/23 23:31:25;;;;;;;;;;;15.40;99.90;;;;;;10445393;28;84261;-54
2022/05/23 23:41:45;;;;;;;;;;;15.30;99.90;;;;;;10450715;28;84918;-48
2022/05/23 23:46:47;;;;;;;;;;;15.30;99.90;;;;;;10430866;27;84817;-52
2022/05/23 23:51:48;;;;;;;;;;;15.40;99.90;;;;;;10449677;28;84131;-51
2022/05/23 23:56:49;;;;;;;;;;;15.40;99.90;;;;;;10449641;27;84143;-51
